Last 30 Days

AM-Scott Top 8120'

Daily Data | America/Los_Angeles
as of 6/27/22 4:22 PM PDT
Date Daily Max Temp (°F) Time of Max Temp Daily Min Temp (°F) Time of Min Temp Wind Spd (mph) Wind Gust (mph) Wind Gst Dir (°) Wind Gst Time Wet Bulb (°F) WetB Hrs <28F (hrs) Max RH (%) Min RH (%) MinBV Day (V)
6/26/22 71.6 1241 59.7 0117 7.0 30.1 WSW | 255 1633 48.3 0.0 50 10 11.2
6/25/22 73.1 1348 56.6 0437 3.8 17.7 SSW | 201 1455 47.6 0.0 54 25 11.2
6/24/22 67.9 1539 54.0 0538 4.9 21.2 W | 259 1804 45.9 0.0 52 18 11.2
6/23/22 65.9 1147 47.8 1725 5.7 21.4 W | 264 1629 45.9 0.0 84 38 11.2
6/22/22 70.1 1234 52.1 2114 4.8 19.9 W | 263 1508 44.9 0.0 61 19 11.2
6/21/22 67.6 1743 45.6 0558 5.6 18.7 E | 85 0002 41.2 0.0 47 19 11.2
6/20/22 62.2 1547 38.3 0529 4.5 17.5 E | 80 2333 39.3 0.0 85 21 11.2
6/19/22 51.1 1604 29.7 0541 7.0 23.5 WNW | 283 1436 35.8 0.0 96 37 11.2
6/18/22 43.0 1518 28.4 0422 9.8 39.1 W | 281 0023 30.4 2.6 96 50 11.2
6/17/22 45.1 0008 30.0 2353 19.4 44.5 WSW | 251 0002 30.5 5.0 94 15 11.2
6/16/22 58.8 1427 44.2 2355 26.1 55.9 SW | 216 1847 40.5 0.0 62 21 11.2
6/15/22 66.7 1433 53.2 2359 13.5 29.3 W | 259 1641 45.1 0.0 47 24 11.2
6/14/22 58.2 1617 34.5 0248 5.1 19.5 WSW | 249 1441 36.7 0.0 63 20 11.2
6/13/22 - 0813 34.1 0543 11.1 33.9 WSW | 242 0107 37.0 0.0 98 47 11.2
6/12/22 52.5 0005 38.9 0001 22.8 55.8 WSW | 252 1535 44.4 0.0 99 57 11.2
6/11/22 63.3 1431 52.2 2230 16.2 35.6 WSW | 258 1502 47.5 0.0 87 31 11.2
6/10/22 68.9 1441 54.5 2356 10.3 32.4 WSW | 258 1753 47.8 0.0 62 17 11.2
6/9/22 70.4 1253 52.0 0636 4.1 19.9 W | 271 1442 48.6 0.0 63 29 11.2
6/8/22 62.4 1442 52.1 0233 10.4 31.1 SW | 225 1434 42.4 0.0 69 7 11.2
6/7/22 63.8 1522 49.8 0150 5.9 16.7 SW | 235 1630 39.3 0.0 50 5 11.2
6/6/22 57.5 1540 38.6 0138 10.6 24.6 WSW | 250 0055 37.8 0.0 98 5 11.2
6/5/22 46.1 1449 37.9 0145 22.9 49.1 WSW | 237 0244 42.2 0.0 99 93 11.2
6/4/22 43.2 0005 34.3 0538 16.5 37.0 WSW | 250 2309 37.0 0.0 98 65 11.2
6/3/22 53.2 1254 42.9 2159 16.8 39.3 WSW | 256 1723 41.1 0.0 91 48 11.2
6/2/22 46.7 2218 44.9 2340 12.9 25.7 WSW | 257 2148 40.8 0.0 71 65 11.2
6/1/22 60.7 1418 42.0 0501 6.0 20.6 WSW | 253 1509 38.9 0.0 53 28 11.2
5/31/22 54.6 1710 29.1 0440 5.9 23.2 SE | 128 0731 33.3 3.6 82 29 11.2
5/30/22 47.1 1722 29.9 0647 7.2 25.2 NE | 49 2133 32.4 0.0 91 46 11.2
5/29/22 46.8 1419 29.3 0723 9.0 33.8 W | 268 0103 33.3 0.0 99 48 11.2
5/28/22 40.9 1317 31.5 0506 19.6 47.9 WSW | 250 1900 35.1 0.0 99 75 11.2
Max 73.1 - 59.7 - 26.1 55.9 - - 48.6 5.0 99 93 11.2
Avg - - - - 10.9 30.3 - - 40.4 - - - -
Min 40.9 - 28.4 - 3.8 16.7 - - 30.4 0.0 47 5 11.2